createdAt,value
2022-10-18T00:00:54.977Z,9.60
2022-10-18T00:03:37.524Z,9.10
2022-10-18T00:06:06.335Z,8.80
2022-10-18T00:08:34.028Z,8.70
2022-10-18T00:11:01.914Z,8.60
2022-10-18T00:13:29.785Z,8.00
2022-10-18T00:16:01.649Z,8.30
2022-10-18T00:18:30.030Z,8.70
2022-10-18T00:20:58.799Z,8.00
2022-10-18T00:23:27.236Z,8.00
2022-10-18T00:26:17.918Z,7.90
2022-10-18T00:28:46.928Z,8.10
2022-10-18T00:31:26.946Z,8.20
2022-10-18T00:33:57.469Z,7.40
2022-10-18T00:36:26.590Z,7.70
2022-10-18T00:38:54.363Z,8.00
2022-10-18T00:41:26.181Z,7.90
2022-10-18T00:44:04.694Z,7.90
2022-10-18T00:46:44.555Z,7.20
2022-10-18T00:49:16.511Z,7.30
2022-10-18T00:51:48.593Z,8.00
2022-10-18T00:54:18.213Z,7.80
2022-10-18T00:56:46.382Z,7.30
2022-10-18T00:59:16.810Z,7.60
2022-10-18T01:01:47.855Z,7.30
2022-10-18T01:04:17.454Z,8.10
2022-10-18T01:07:03.702Z,7.20
2022-10-18T01:09:43.504Z,7.30
2022-10-18T01:12:49.754Z,7.30
2022-10-18T01:15:26.707Z,7.90
2022-10-18T01:18:15.367Z,7.40
2022-10-18T01:20:52.351Z,6.50
2022-10-18T01:23:53.480Z,7.10
2022-10-18T01:26:33.192Z,7.70
2022-10-18T01:29:25.595Z,7.30
2022-10-18T01:32:07.442Z,7.00
2022-10-18T01:34:37.860Z,7.50
2022-10-18T01:37:11.474Z,7.60
2022-10-18T01:39:44.347Z,6.60
2022-10-18T01:42:18.276Z,6.60
2022-10-18T01:44:48.400Z,6.70
2022-10-18T01:47:17.901Z,6.70
2022-10-18T01:49:45.872Z,6.30
2022-10-18T01:52:17.531Z,6.50
2022-10-18T01:54:51.149Z,5.90
2022-10-18T01:57:37.081Z,6.40
2022-10-18T02:00:14.669Z,6.10
2022-10-18T02:02:48.719Z,6.00
2022-10-18T02:05:29.894Z,6.00
2022-10-18T02:08:42.485Z,6.00
2022-10-18T02:11:14.044Z,6.40
2022-10-18T02:14:00.565Z,6.20
2022-10-18T02:16:38.030Z,6.40
2022-10-18T02:19:10.707Z,5.60
2022-10-18T02:21:42.096Z,6.30
2022-10-18T02:24:12.878Z,6.90
2022-10-18T02:26:40.709Z,5.80
2022-10-18T02:29:09.154Z,6.60
2022-10-18T02:31:43.870Z,6.10
2022-10-18T02:34:27.210Z,6.30
2022-10-18T02:37:04.810Z,6.20
2022-10-18T02:39:46.086Z,6.30
2022-10-18T02:42:15.067Z,6.10
2022-10-18T02:44:43.043Z,5.70
2022-10-18T02:47:12.255Z,5.90
2022-10-18T02:49:40.125Z,6.10
2022-10-18T02:52:07.842Z,6.10
2022-10-18T02:54:35.669Z,5.90
2022-10-18T02:57:03.438Z,6.00
2022-10-18T02:59:31.200Z,6.10
2022-10-18T03:01:58.972Z,6.10
2022-10-18T03:06:59.280Z,6.30
2022-10-18T03:09:27.176Z,5.50
2022-10-18T03:11:54.878Z,5.60
2022-10-18T03:14:22.668Z,6.20
2022-10-18T03:16:50.419Z,5.90
2022-10-18T03:19:18.165Z,6.00
2022-10-18T03:21:45.931Z,5.90
2022-10-18T03:24:13.704Z,5.80
2022-10-18T03:26:41.412Z,5.80
2022-10-18T03:29:10.869Z,5.60
2022-10-18T03:31:39.058Z,6.30
2022-10-18T03:34:06.923Z,6.00
2022-10-18T03:36:34.899Z,5.80
2022-10-18T03:39:02.602Z,6.10
2022-10-18T03:41:30.279Z,5.70
2022-10-18T03:43:58.000Z,5.80
2022-10-18T03:46:25.972Z,5.80
2022-10-18T03:48:53.743Z,5.60
2022-10-18T03:51:21.450Z,5.30
2022-10-18T03:53:49.281Z,5.80
2022-10-18T03:56:16.984Z,5.50
2022-10-18T03:58:44.692Z,5.70
2022-10-18T04:01:12.599Z,5.80
2022-10-18T04:03:40.557Z,5.30
2022-10-18T04:06:10.018Z,5.80
2022-10-18T04:08:37.840Z,5.40
2022-10-18T04:11:09.910Z,5.90
2022-10-18T04:13:37.623Z,6.00
2022-10-18T04:16:05.440Z,5.20
2022-10-18T04:18:33.219Z,5.60
2022-10-18T04:21:00.976Z,5.20
2022-10-18T04:23:28.949Z,5.50
2022-10-18T04:25:56.621Z,8.00
2022-10-18T04:28:24.494Z,6.10
2022-10-18T04:30:53.260Z,5.40
2022-10-18T04:33:21.459Z,5.30
2022-10-18T04:35:52.604Z,5.80
2022-10-18T04:38:20.353Z,5.90
2022-10-18T04:40:48.142Z,5.90
2022-10-18T04:43:16.026Z,5.50
2022-10-18T04:45:48.285Z,5.90
2022-10-18T04:48:16.054Z,6.40
2022-10-18T04:50:44.449Z,11.30
2022-10-18T04:53:16.195Z,6.50
2022-10-18T04:55:45.688Z,6.50
2022-10-18T04:58:13.678Z,5.80
2022-10-18T05:00:42.016Z,6.30
2022-10-18T05:03:12.758Z,5.90
2022-10-18T05:06:00.324Z,6.30
2022-10-18T05:08:28.804Z,6.30
2022-10-18T05:10:56.541Z,5.40
2022-10-18T05:13:24.438Z,5.80
2022-10-18T05:15:52.377Z,6.30
2022-10-18T05:18:20.286Z,6.60
2022-10-18T05:20:48.053Z,6.20
2022-10-18T05:23:15.749Z,6.10
2022-10-18T05:25:44.131Z,5.90
2022-10-18T05:28:34.522Z,5.50
2022-10-18T05:31:07.358Z,5.80
2022-10-18T05:33:35.920Z,6.00
2022-10-18T05:36:04.479Z,5.80
2022-10-18T05:38:32.319Z,6.00
2022-10-18T05:41:04.489Z,5.90
2022-10-18T05:43:32.190Z,5.80
2022-10-18T05:46:00.026Z,6.10
2022-10-18T05:48:27.743Z,6.30
2022-10-18T05:50:59.350Z,6.30
2022-10-18T05:53:37.066Z,6.10
2022-10-18T05:56:07.116Z,6.20
2022-10-18T05:58:35.571Z,6.00
2022-10-18T06:01:05.484Z,6.10
2022-10-18T06:03:33.750Z,6.10
2022-10-18T06:06:07.356Z,6.60
2022-10-18T06:08:36.214Z,6.00
2022-10-18T06:11:08.471Z,6.60
2022-10-18T06:13:41.249Z,6.30
2022-10-18T06:16:09.811Z,6.10
2022-10-18T06:18:38.094Z,6.20
2022-10-18T06:21:07.092Z,6.20
2022-10-18T06:23:35.441Z,5.80
2022-10-18T06:26:08.454Z,6.20
2022-10-18T06:28:37.308Z,6.70
2022-10-18T06:31:06.095Z,7.10
2022-10-18T06:33:36.102Z,8.00
2022-10-18T06:36:10.543Z,7.50
2022-10-18T06:38:38.267Z,6.60
2022-10-18T06:41:07.443Z,7.30
2022-10-18T06:43:35.788Z,7.30
2022-10-18T06:46:06.918Z,7.10
2022-10-18T06:48:40.051Z,6.90
2022-10-18T06:51:09.042Z,7.30
2022-10-18T06:53:44.040Z,6.70
2022-10-18T06:56:21.257Z,6.60
2022-10-18T06:58:49.086Z,6.90
2022-10-18T07:01:18.501Z,6.60
2022-10-18T07:03:47.938Z,7.00
2022-10-18T07:06:18.448Z,6.90
2022-10-18T07:08:48.083Z,6.80
2022-10-18T07:11:18.707Z,7.20
2022-10-18T07:13:46.489Z,6.90
2022-10-18T07:16:18.410Z,6.80
2022-10-18T07:18:51.545Z,6.90
2022-10-18T07:21:22.177Z,6.30
2022-10-18T07:23:51.479Z,7.10
2022-10-18T07:26:20.811Z,6.80
2022-10-18T07:28:51.851Z,7.20
2022-10-18T07:31:20.106Z,7.30
2022-10-18T07:33:47.876Z,6.80
2022-10-18T07:36:16.082Z,7.30
2022-10-18T07:38:44.891Z,6.90
2022-10-18T07:41:13.944Z,7.50
2022-10-18T07:43:43.759Z,7.50
2022-10-18T07:46:12.559Z,7.50
2022-10-18T07:48:40.993Z,7.80
2022-10-18T07:51:09.601Z,8.30
2022-10-18T07:53:37.881Z,8.20
2022-10-18T07:56:11.538Z,7.30
2022-10-18T07:58:39.482Z,7.10
2022-10-18T08:01:08.940Z,7.80
2022-10-18T08:03:38.794Z,7.20
2022-10-18T08:06:09.671Z,8.00
2022-10-18T08:08:39.336Z,7.70
2022-10-18T08:11:15.012Z,7.60
2022-10-18T08:13:43.277Z,7.80
2022-10-18T08:16:17.538Z,7.80
2022-10-18T08:18:45.781Z,7.70
2022-10-18T08:21:15.215Z,7.20
2022-10-18T08:23:43.694Z,7.60
2022-10-18T08:26:14.483Z,7.60
2022-10-18T08:28:49.096Z,8.20
2022-10-18T08:31:26.322Z,7.60
2022-10-18T08:33:57.176Z,7.80
2022-10-18T08:36:25.234Z,7.40
2022-10-18T08:38:52.928Z,7.90
2022-10-18T08:41:26.948Z,7.90
2022-10-18T08:44:16.170Z,8.20
2022-10-18T08:47:04.498Z,7.90
2022-10-18T08:49:46.770Z,8.10
2022-10-18T08:52:29.588Z,8.10
2022-10-18T08:55:11.941Z,8.20
2022-10-18T08:57:39.878Z,8.80
2022-10-18T09:00:19.030Z,8.70
2022-10-18T09:03:00.372Z,9.50
2022-10-18T09:05:39.358Z,8.80
2022-10-18T09:08:46.816Z,9.60
2022-10-18T09:11:17.338Z,8.50
2022-10-18T09:14:04.237Z,9.50
2022-10-18T09:16:59.531Z,10.20
2022-10-18T09:19:55.931Z,10.00
2022-10-18T09:22:53.502Z,9.90
2022-10-18T09:25:45.831Z,10.00
2022-10-18T09:28:30.661Z,9.70
2022-10-18T09:31:14.096Z,10.20
2022-10-18T09:34:19.748Z,9.40
2022-10-18T09:36:51.817Z,9.80
2022-10-18T09:39:25.000Z,9.20
2022-10-18T09:42:28.287Z,9.80
2022-10-18T09:45:02.181Z,10.30
2022-10-18T09:47:37.946Z,10.20
2022-10-18T09:50:27.711Z,10.40
2022-10-18T09:53:19.705Z,10.40
2022-10-18T09:56:06.127Z,10.70
2022-10-18T09:58:44.117Z,10.80
2022-10-18T10:01:15.788Z,10.50
2022-10-18T10:03:44.067Z,12.00
2022-10-18T10:06:11.718Z,12.20
2022-10-18T10:08:47.472Z,11.70
2022-10-18T10:11:40.226Z,11.40
2022-10-18T10:14:12.668Z,11.00
2022-10-18T10:16:57.047Z,12.20
2022-10-18T10:19:24.929Z,12.10
2022-10-18T10:21:57.182Z,11.30
2022-10-18T10:24:53.142Z,11.10
2022-10-18T10:27:44.894Z,11.80
2022-10-18T10:30:34.072Z,11.90
2022-10-18T10:33:02.356Z,12.60
2022-10-18T10:35:35.470Z,12.90
2022-10-18T10:38:24.013Z,13.10
2022-10-18T10:40:52.800Z,12.90
2022-10-18T10:43:44.550Z,13.00
2022-10-18T10:46:15.218Z,11.80
2022-10-18T10:48:47.890Z,11.60
2022-10-18T10:51:31.576Z,12.30
2022-10-18T10:54:08.187Z,12.00
2022-10-18T10:56:50.091Z,12.10
2022-10-18T10:59:20.302Z,12.80
2022-10-18T11:01:50.246Z,12.70
2022-10-18T11:04:28.511Z,12.70
2022-10-18T11:07:14.558Z,13.30
2022-10-18T11:09:51.517Z,12.90
2022-10-18T11:12:28.012Z,13.40
2022-10-18T11:15:18.572Z,12.90
2022-10-18T11:18:05.070Z,13.50
2022-10-18T11:20:44.685Z,12.90
2022-10-18T11:23:14.674Z,13.10
2022-10-18T11:26:12.178Z,14.10
2022-10-18T11:29:05.335Z,13.40
2022-10-18T11:31:43.528Z,14.20
2022-10-18T11:34:45.375Z,14.10
2022-10-18T11:37:29.067Z,14.00
2022-10-18T11:40:35.659Z,13.40
2022-10-18T11:43:03.326Z,13.40
2022-10-18T11:45:56.167Z,13.70
2022-10-18T11:48:42.246Z,13.10
2022-10-18T11:51:38.576Z,13.10
2022-10-18T11:54:41.954Z,12.40
2022-10-18T11:57:43.861Z,14.50
2022-10-18T12:00:39.433Z,13.70
2022-10-18T12:03:20.098Z,14.30
2022-10-18T12:05:50.394Z,14.30
2022-10-18T12:08:39.243Z,15.20
2022-10-18T12:11:14.584Z,14.80
2022-10-18T12:13:50.179Z,13.90
2022-10-18T12:16:38.908Z,13.80
2022-10-18T12:19:36.926Z,14.40
2022-10-18T12:22:32.924Z,14.90
2022-10-18T12:25:01.949Z,15.10
2022-10-18T12:27:44.442Z,14.20
2022-10-18T12:30:40.967Z,14.50
2022-10-18T12:33:27.623Z,16.90
2022-10-18T12:36:14.183Z,16.30
2022-10-18T12:38:45.049Z,16.40
2022-10-18T12:41:31.172Z,16.30
2022-10-18T12:44:47.232Z,14.50
2022-10-18T12:47:24.281Z,15.20
2022-10-18T12:50:02.350Z,14.60
2022-10-18T12:52:34.628Z,15.70
2022-10-18T12:55:17.648Z,14.10
2022-10-18T12:57:51.753Z,15.70
2022-10-18T13:00:31.487Z,17.00
2022-10-18T13:03:16.614Z,17.30
2022-10-18T13:05:55.985Z,14.20
2022-10-18T13:08:30.418Z,15.50
2022-10-18T13:11:01.353Z,15.10
2022-10-18T13:13:52.899Z,15.40
2022-10-18T13:16:20.602Z,14.00
2022-10-18T13:19:28.521Z,14.40
2022-10-18T13:22:16.136Z,15.80
2022-10-18T13:25:19.414Z,15.00
2022-10-18T13:28:05.085Z,14.30
2022-10-18T13:30:55.119Z,14.50
2022-10-18T13:33:36.562Z,14.10
2022-10-18T13:36:21.629Z,14.70
2022-10-18T13:38:55.660Z,15.10
2022-10-18T13:44:38.325Z,13.90
2022-10-18T13:47:06.922Z,14.80
2022-10-18T13:49:43.619Z,14.30
2022-10-18T13:52:25.694Z,15.70
2022-10-18T13:55:14.788Z,14.60
2022-10-18T13:57:51.540Z,14.20
2022-10-18T14:00:38.167Z,14.50
2022-10-18T14:06:33.116Z,15.70
2022-10-18T14:09:13.921Z,15.10
2022-10-18T14:12:07.184Z,15.60
2022-10-18T14:14:42.875Z,15.20
2022-10-18T14:17:28.879Z,15.80
2022-10-18T14:20:24.793Z,15.90
2022-10-18T14:23:20.460Z,15.10
2022-10-18T14:25:48.533Z,15.90
2022-10-18T14:28:21.745Z,15.90
2022-10-18T14:30:58.001Z,15.40
2022-10-18T14:33:25.810Z,15.80
2022-10-18T14:36:03.678Z,13.80
2022-10-18T14:38:31.750Z,14.90
2022-10-18T14:41:16.916Z,15.80
2022-10-18T14:43:46.626Z,15.80
2022-10-18T14:46:30.167Z,16.70
2022-10-18T14:49:01.983Z,16.50
2022-10-18T14:51:34.778Z,14.10
2022-10-18T14:54:03.254Z,14.50
2022-10-18T14:56:36.838Z,14.90
2022-10-18T14:59:11.805Z,14.60
2022-10-18T15:01:39.629Z,14.30
2022-10-18T15:04:11.666Z,14.50
2022-10-18T15:06:43.825Z,14.60
2022-10-18T15:09:15.898Z,15.20
2022-10-18T15:11:45.312Z,15.30
2022-10-18T15:14:19.714Z,14.80
2022-10-18T15:16:50.450Z,15.50
2022-10-18T15:19:18.080Z,16.10
2022-10-18T15:22:19.855Z,14.80
2022-10-18T15:24:44.440Z,11.30
2022-10-18T15:27:21.904Z,8.80
2022-10-18T15:29:50.231Z,7.10
2022-10-18T15:32:31.706Z,7.10
2022-10-18T15:35:09.939Z,6.70
2022-10-18T15:37:44.034Z,5.40
2022-10-18T15:40:23.776Z,3.70
2022-10-18T15:42:53.992Z,2.30
2022-10-18T15:45:24.950Z,2.60
2022-10-18T15:48:09.436Z,2.30
2022-10-18T15:50:42.753Z,2.90
2022-10-18T15:53:42.791Z,3.20
2022-10-18T15:56:13.840Z,3.00
2022-10-18T15:58:46.827Z,3.00
2022-10-18T16:01:37.280Z,4.10
2022-10-18T16:04:12.152Z,4.80
2022-10-18T16:06:40.079Z,3.50
2022-10-18T16:09:15.684Z,3.40
2022-10-18T16:11:43.952Z,3.70
2022-10-18T16:14:11.656Z,4.10
2022-10-18T16:16:40.499Z,4.60
2022-10-18T16:19:13.691Z,4.80
2022-10-18T16:21:42.586Z,4.70
2022-10-18T16:24:10.758Z,4.40
2022-10-18T16:26:38.738Z,4.50
2022-10-18T16:29:07.524Z,4.30
2022-10-18T16:31:35.404Z,4.70
2022-10-18T16:34:03.273Z,4.40
2022-10-18T16:36:33.405Z,3.90
2022-10-18T16:39:10.439Z,4.70
2022-10-18T16:41:38.238Z,4.40
2022-10-18T16:44:06.172Z,4.50
2022-10-18T16:46:35.524Z,4.70
2022-10-18T16:49:05.030Z,4.70
2022-10-18T16:51:33.203Z,5.00
2022-10-18T16:54:00.899Z,4.90
2022-10-18T16:56:31.718Z,5.60
2022-10-18T16:59:00.505Z,5.90
2022-10-18T17:01:28.460Z,5.80
2022-10-18T17:03:56.266Z,6.00
2022-10-18T17:06:29.483Z,6.20
2022-10-18T17:08:57.978Z,6.50
2022-10-18T17:11:28.372Z,7.00
2022-10-18T17:13:56.226Z,8.20
2022-10-18T17:19:04.851Z,7.20
2022-10-18T17:21:33.688Z,7.60
2022-10-18T17:24:04.392Z,7.70
2022-10-18T17:26:33.283Z,6.60
2022-10-18T17:29:06.267Z,6.90
2022-10-18T17:31:35.723Z,5.90
2022-10-18T17:34:04.471Z,6.30
2022-10-18T17:36:33.553Z,6.20
2022-10-18T17:39:01.635Z,6.00
2022-10-18T17:41:29.522Z,6.00
2022-10-18T17:43:57.395Z,5.60
2022-10-18T17:46:25.212Z,5.20
2022-10-18T17:48:53.761Z,4.90
2022-10-18T17:51:22.536Z,5.10
2022-10-18T17:53:50.410Z,4.90
2022-10-18T17:56:18.176Z,4.60
2022-10-18T17:58:49.857Z,4.50
2022-10-18T18:01:20.968Z,3.90
2022-10-18T18:03:48.954Z,3.50
2022-10-18T18:06:31.426Z,3.30
2022-10-18T18:09:01.999Z,2.90
2022-10-18T18:11:29.962Z,26.90
2022-10-18T18:13:58.655Z,17.70
2022-10-18T18:16:28.621Z,3.80
2022-10-18T18:18:58.284Z,3.40
2022-10-18T18:21:27.496Z,3.00
2022-10-18T18:23:55.461Z,3.00
2022-10-18T18:26:23.945Z,2.70
2022-10-18T18:28:52.608Z,2.50
2022-10-18T18:31:23.569Z,2.90
2022-10-18T18:33:52.966Z,4.60
2022-10-18T18:36:21.772Z,3.70
2022-10-18T18:38:55.493Z,3.10
2022-10-18T18:41:27.043Z,3.30
2022-10-18T18:43:54.686Z,2.80
2022-10-18T18:46:23.431Z,3.30
2022-10-18T18:48:51.551Z,3.40
2022-10-18T18:51:21.996Z,3.30
2022-10-18T18:53:49.681Z,3.90
2022-10-18T18:56:25.111Z,3.80
2022-10-18T18:58:54.311Z,6.40
2022-10-18T19:01:25.222Z,4.40
2022-10-18T19:03:55.475Z,4.70
2022-10-18T19:06:29.587Z,4.60
2022-10-18T19:09:01.559Z,4.20
2022-10-18T19:11:33.531Z,3.90
2022-10-18T19:14:02.400Z,4.00
2022-10-18T19:16:34.469Z,3.70
2022-10-18T19:19:05.374Z,3.80
2022-10-18T19:21:39.211Z,3.60
2022-10-18T19:24:07.924Z,3.50
2022-10-18T19:26:50.619Z,3.20
2022-10-18T19:29:24.660Z,3.20
2022-10-18T19:31:55.363Z,3.20
2022-10-18T19:34:25.574Z,3.20
2022-10-18T19:36:53.270Z,3.40
2022-10-18T19:39:23.774Z,3.50
2022-10-18T19:41:58.005Z,7.80
2022-10-18T19:44:29.055Z,53.90
2022-10-18T19:46:57.845Z,4.30
2022-10-18T19:49:26.138Z,4.20
2022-10-18T19:51:54.305Z,3.90
2022-10-18T19:54:22.177Z,3.80
2022-10-18T19:56:49.940Z,40.20
2022-10-18T19:59:18.227Z,5.90
2022-10-18T20:01:46.007Z,4.60
2022-10-18T20:04:14.467Z,3.90
2022-10-18T20:06:43.274Z,4.40
2022-10-18T20:09:14.823Z,4.70
2022-10-18T20:11:45.767Z,4.80
2022-10-18T20:14:13.584Z,7.60
2022-10-18T20:16:41.410Z,10.80
2022-10-18T20:19:10.417Z,6.10
2022-10-18T20:21:39.509Z,4.60
2022-10-18T20:24:07.887Z,4.40
2022-10-18T20:26:36.008Z,4.60
2022-10-18T20:29:04.187Z,3.70
2022-10-18T20:31:35.772Z,3.90
2022-10-18T20:34:07.160Z,5.00
2022-10-18T20:36:35.839Z,4.20
2022-10-18T20:39:05.106Z,4.10
2022-10-18T20:41:41.057Z,3.60
2022-10-18T20:44:13.638Z,3.40
2022-10-18T20:46:42.360Z,3.90
2022-10-18T20:49:15.329Z,4.50
2022-10-18T20:51:43.265Z,4.90
2022-10-18T20:54:12.037Z,5.80
2022-10-18T20:56:39.776Z,7.00
2022-10-18T20:59:10.117Z,6.50
2022-10-18T21:01:39.474Z,6.50
2022-10-18T21:04:10.458Z,6.70
2022-10-18T21:06:41.999Z,6.60
2022-10-18T21:09:18.790Z,7.40
2022-10-18T21:11:49.550Z,7.30
2022-10-18T21:14:20.084Z,6.90
2022-10-18T21:16:48.876Z,7.60
2022-10-18T21:19:26.407Z,7.40
2022-10-18T21:21:56.996Z,7.80
2022-10-18T21:24:25.917Z,8.00
2022-10-18T21:26:54.896Z,8.70
2022-10-18T21:29:27.035Z,8.30
2022-10-18T21:31:58.092Z,8.30
2022-10-18T21:34:26.361Z,9.00
2022-10-18T21:36:54.247Z,8.70
2022-10-18T21:41:56.811Z,9.30
2022-10-18T21:44:24.802Z,8.70
2022-10-18T21:46:52.521Z,8.70
2022-10-18T21:49:23.368Z,9.10
2022-10-18T21:51:51.175Z,9.20
2022-10-18T21:54:19.077Z,8.70
2022-10-18T21:56:46.818Z,8.60
2022-10-18T21:59:14.534Z,8.90
2022-10-18T22:01:44.299Z,8.80
2022-10-18T22:04:21.552Z,8.90
2022-10-18T22:06:50.078Z,8.60
2022-10-18T22:09:18.357Z,8.70
2022-10-18T22:11:50.715Z,8.60
2022-10-18T22:14:18.477Z,9.00
2022-10-18T22:16:46.364Z,9.40
2022-10-18T22:19:14.441Z,9.60
2022-10-18T22:21:42.515Z,9.50
2022-10-18T22:24:10.592Z,9.60
2022-10-18T22:26:40.666Z,9.40
2022-10-18T22:29:20.353Z,10.40
2022-10-18T22:31:50.554Z,9.50
2022-10-18T22:34:24.014Z,9.50
2022-10-18T22:36:51.747Z,9.70
2022-10-18T22:39:19.927Z,9.30
2022-10-18T22:41:47.890Z,9.60
2022-10-18T22:44:15.769Z,9.30
2022-10-18T22:46:43.707Z,9.40
2022-10-18T22:49:12.223Z,9.30
2022-10-18T22:51:40.922Z,9.70
2022-10-18T22:54:08.981Z,9.80
2022-10-18T22:56:36.862Z,9.40
2022-10-18T22:59:04.732Z,9.30
2022-10-18T23:01:32.429Z,9.80
2022-10-18T23:04:01.330Z,9.70
2022-10-18T23:06:31.758Z,9.50
2022-10-18T23:09:01.952Z,8.80
2022-10-18T23:11:29.921Z,9.00
2022-10-18T23:13:57.689Z,9.50
2022-10-18T23:16:25.550Z,9.70
2022-10-18T23:18:55.574Z,9.90
2022-10-18T23:21:25.825Z,10.20
2022-10-18T23:23:55.306Z,9.90
2022-10-18T23:26:25.827Z,9.90
2022-10-18T23:28:54.431Z,9.70
2022-10-18T23:31:24.075Z,9.90
2022-10-18T23:33:54.130Z,9.80
2022-10-18T23:36:22.765Z,10.20
2022-10-18T23:38:50.991Z,10.50
2022-10-18T23:41:19.092Z,10.40
2022-10-18T23:43:47.781Z,10.10
2022-10-18T23:46:17.416Z,10.40
2022-10-18T23:48:46.508Z,10.10
2022-10-18T23:51:15.156Z,9.30
2022-10-18T23:53:42.984Z,9.40
2022-10-18T23:56:15.841Z,9.30
2022-10-18T23:58:44.952Z,9.20
